China Grove, Texas
Current Conditions -  °F | °C
As of 12:53 PM on Thursday 30 Oct 2014 (Local Time) from KSSF Reporting Station
Clear Clear  
Wind Chill: 81°   Ceiling: Unl
Heat Index: 82°   Visibility: 10mi
Dew Point: 62°   Wind: 5mph
Humidity: 52%   Direction: NA
Pressure: 30.1"   Gusts: NA
Location:  29.3632°N, 98.3088°W
Report Text: KSSF 301753Z VRB04KT 10SM CLR 27/17 A3010 RMK AO2 SLP182 T02720167 10272 20194 58013
Loading
Personal Weather Stations






























Interactive Weather Map
Tropical Storm Tracking
New forecast layout! Learn more

10-Day Weather Forecast

Advertisements
Track Severe Weather on mobile